KAHN/AHN METAR and TAF weather

Enter ICAO airport designator
Station Type Date Time Source
KAHN METAR 2019/02/16 03:01 UTC NOAA

KAHN 160301Z AUTO 19003KT 5SM -RA BR BKN007 OVC011 13/13 A2983 RMK AO2 P0001 T01330128


Station Type Date Time Source
KAHN Decoded METAR 2019/02/16 03:01 UTC NOAA

ATHENS BEN EPPS AIRPORT, GA, United States (KAHN) 33-57N 083-20W 244M
Feb 15, 2019 - 10:01 PM EST / 2019.02.16 0301 UTC
Wind: from the S (190 degrees) at 3 MPH (3 KT):0
Visibility: 5 mile(s):0
Sky conditions: overcast
Weather: light rain; mist
Precipitation last hour: 0.01 inches
Temperature: 55.9 F (13.3 C)
Dew Point: 55.0 F (12.8 C)
Relative Humidity: 96%
Pressure (altimeter): 29.83 in. Hg (1010 hPa)
ob: KAHN 160301Z AUTO 19003KT 5SM -RA BR BKN007 OVC011 13/13 A2983 RMK AO2 P0001 T01330128
cycle: 3

Station Type Date Time Source
KAHN TAF 2019/02/15 18:46 UTC NOAA

TAF KAHN 151744Z 1518/1618 23006KT P6SM VCSH OVC015
FM152200 24005KT 6SM BR VCSH BKN015 OVC025
FM160000 22005KT 4SM -SHRA BR OVC015
FM160300 22007KT 4SM -SHRA OVC007
FM161200 23007KT P6SM OVC010
FM161400 26006KT P6SM OVC015
FM161600 31008KT P6SM OVC040


Example: see airport list